Time;durP1;ratioP1;P1;durP2;ratioP2;P2;SDS_P1;SDS_P2;PMS_P1;PMS_P2;Temp;Humidity;BMP_temperature;BMP_pressure;BME280_temperature;BME280_humidity;BME280_pressure;Samples;Min_cycle;Max_cycle;Signal;HPM_P1;HPM_P2
2022/03/22 00:01:31;;;;;;;13.73;8.83;;;;;;;;;;5007616;28;20219;-78
2022/03/22 00:04:02;;;;;;;11.37;9.10;;;;;;;;;;5048767;28;20689;-78
2022/03/22 00:06:28;;;;;;;11.50;9.03;;;;;;;;;;5049935;28;20244;-79
2022/03/22 00:08:54;;;;;;;10.90;8.23;;;;;;;;;;5040820;28;20640;-78
2022/03/22 00:11:19;;;;;;;10.77;8.90;;;;;;;;;;5049847;28;20227;-79
2022/03/22 00:13:48;;;;;;;12.57;9.23;;;;;;;;;;5033541;28;20231;-76
2022/03/22 00:16:18;;;;;;;9.93;8.63;;;;;;;;;;5048357;28;20261;-76
2022/03/22 00:18:44;;;;;;;10.37;9.27;;;;;;;;;;5053811;28;20242;-79
2022/03/22 00:21:09;;;;;;;12.87;9.73;;;;;;;;;;5027878;28;20227;-79
2022/03/22 00:23:35;;;;;;;10.47;9.37;;;;;;;;;;5056344;28;20246;-78
2022/03/22 00:26:00;;;;;;;12.37;9.13;;;;;;;;;;5042015;28;20681;-77
2022/03/22 00:28:26;;;;;;;12.10;9.00;;;;;;;;;;4995709;28;20242;-79
2022/03/22 00:30:53;;;;;;;10.77;9.40;;;;;;;;;;5011814;28;20232;-77
2022/03/22 00:33:19;;;;;;;9.97;8.77;;;;;;;;;;5040372;28;20227;-79
2022/03/22 00:35:44;;;;;;;11.10;9.27;;;;;;;;;;5012927;28;20635;-79
2022/03/22 00:38:16;;;;;;;10.13;9.00;;;;;;;;;;5033234;28;20719;-78
2022/03/22 00:40:42;;;;;;;11.37;8.80;;;;;;;;;;5036020;28;20242;-78
2022/03/22 00:43:11;;;;;;;10.73;9.30;;;;;;;;;;5058549;28;20245;-80
2022/03/22 00:45:37;;;;;;;11.77;9.03;;;;;;;;;;5050395;28;20231;-78
2022/03/22 00:48:04;;;;;;;12.13;8.80;;;;;;;;;;5013753;28;20551;-78
2022/03/22 00:50:33;;;;;;;9.67;8.47;;;;;;;;;;5063953;28;20227;-78
2022/03/22 00:52:59;;;;;;;12.97;9.63;;;;;;;;;;5057430;28;20227;-79
2022/03/22 00:55:27;;;;;;;10.47;9.20;;;;;;;;;;5056914;28;20203;-77
2022/03/22 00:57:52;;;;;;;10.90;9.60;;;;;;;;;;5042775;28;20224;-77
2022/03/22 01:00:18;;;;;;;12.03;9.27;;;;;;;;;;5021905;28;20234;-78
2022/03/22 01:02:46;;;;;;;12.27;9.10;;;;;;;;;;5033183;28;20247;-79
2022/03/22 01:05:13;;;;;;;9.87;8.87;;;;;;;;;;5068828;28;20208;-77
2022/03/22 01:07:42;;;;;;;10.60;9.07;;;;;;;;;;5074082;28;20234;-77
2022/03/22 01:10:09;;;;;;;11.10;8.97;;;;;;;;;;5057410;28;20223;-79
2022/03/22 01:12:35;;;;;;;10.00;8.70;;;;;;;;;;5044993;28;20239;-80
2022/03/22 01:15:03;;;;;;;13.30;9.33;;;;;;;;;;5034450;28;20228;-78
2022/03/22 01:17:31;;;;;;;11.73;9.17;;;;;;;;;;5061137;28;20215;-77
2022/03/22 01:19:59;;;;;;;12.00;9.37;;;;;;;;;;5069472;28;20224;-78
2022/03/22 01:22:25;;;;;;;10.20;9.10;;;;;;;;;;5057894;28;20212;-76
2022/03/22 01:24:53;;;;;;;12.13;9.43;;;;;;;;;;5052930;28;20235;-78
2022/03/22 01:27:25;;;;;;;9.77;8.77;;;;;;;;;;5045738;28;20247;-78
2022/03/22 01:29:51;;;;;;;10.73;9.13;;;;;;;;;;5009393;28;20220;-79
2022/03/22 01:32:19;;;;;;;10.77;9.37;;;;;;;;;;5038812;28;20659;-78
2022/03/22 01:34:47;;;;;;;10.97;9.40;;;;;;;;;;5068444;28;20255;-78
2022/03/22 01:37:15;;;;;;;10.90;9.00;;;;;;;;;;5051188;28;20287;-77
2022/03/22 01:39:43;;;;;;;11.57;9.67;;;;;;;;;;5051443;28;20211;-78
2022/03/22 01:42:09;;;;;;;11.37;9.67;;;;;;;;;;5024736;28;20254;-77
2022/03/22 01:44:34;;;;;;;11.40;9.10;;;;;;;;;;5019298;28;20223;-78
2022/03/22 01:47:02;;;;;;;11.37;10.17;;;;;;;;;;5012971;28;20223;-78
2022/03/22 01:49:30;;;;;;;12.03;9.43;;;;;;;;;;5041113;28;20323;-77
2022/03/22 01:51:55;;;;;;;10.70;9.47;;;;;;;;;;5008158;28;20243;-77
2022/03/22 01:54:24;;;;;;;11.10;9.90;;;;;;;;;;5036992;28;20235;-79
2022/03/22 01:56:52;;;;;;;10.80;9.70;;;;;;;;;;5048132;28;20239;-78
2022/03/22 01:59:18;;;;;;;10.47;9.23;;;;;;;;;;5030431;28;20219;-79
2022/03/22 02:07:18;;;;;;;12.80;10.13;;;;;;;;;;5057763;28;20879;-78
2022/03/22 02:09:46;;;;;;;11.50;9.50;;;;;;;;;;5022121;28;20223;-79
2022/03/22 02:12:14;;;;;;;12.33;10.00;;;;;;;;;;5033377;28;20251;-78
2022/03/22 02:14:40;;;;;;;11.43;10.00;;;;;;;;;;5043568;28;20216;-79
2022/03/22 02:17:07;;;;;;;11.93;9.47;;;;;;;;;;5049176;28;20299;-78
2022/03/22 02:19:36;;;;;;;12.90;10.27;;;;;;;;;;5015337;28;20215;-78
2022/03/22 02:22:01;;;;;;;13.20;10.33;;;;;;;;;;5023418;28;20251;-79
2022/03/22 02:24:29;;;;;;;12.07;10.20;;;;;;;;;;5051220;28;20595;-77
2022/03/22 02:26:57;;;;;;;13.27;10.00;;;;;;;;;;5052943;28;20640;-78
2022/03/22 02:29:22;;;;;;;11.53;10.17;;;;;;;;;;5041142;28;20224;-77
2022/03/22 02:31:48;;;;;;;11.77;9.93;;;;;;;;;;5056009;28;20232;-79
2022/03/22 02:34:13;;;;;;;11.87;9.67;;;;;;;;;;5055011;28;20227;-79
2022/03/22 02:36:39;;;;;;;11.30;9.47;;;;;;;;;;5061827;28;20306;-77
2022/03/22 02:39:04;;;;;;;14.13;9.90;;;;;;;;;;5064947;28;20242;-78
2022/03/22 02:41:34;;;;;;;11.10;9.87;;;;;;;;;;5057107;28;20219;-78
2022/03/22 02:44:03;;;;;;;11.53;9.23;;;;;;;;;;5038084;28;20224;-80
2022/03/22 02:46:28;;;;;;;12.57;9.97;;;;;;;;;;5051017;28;20239;-78
2022/03/22 02:48:56;;;;;;;12.23;9.17;;;;;;;;;;5054406;28;20349;-77
2022/03/22 02:51:24;;;;;;;13.87;11.33;;;;;;;;;;5047309;28;20242;-78
2022/03/22 02:53:52;;;;;;;15.13;12.03;;;;;;;;;;5032172;28;20216;-79
2022/03/22 02:56:17;;;;;;;14.57;11.73;;;;;;;;;;5062067;28;20273;-79
2022/03/22 02:58:45;;;;;;;13.40;11.10;;;;;;;;;;5037423;28;20227;-78
2022/03/22 03:01:11;;;;;;;13.97;10.90;;;;;;;;;;5028929;28;20577;-79
2022/03/22 03:03:36;;;;;;;13.87;10.93;;;;;;;;;;5051755;28;20220;-79
2022/03/22 03:06:02;;;;;;;11.93;10.40;;;;;;;;;;5050354;28;20223;-78
2022/03/22 03:08:28;;;;;;;14.70;11.27;;;;;;;;;;5051717;28;20283;-79
2022/03/22 03:10:54;;;;;;;14.03;11.10;;;;;;;;;;5012676;28;20232;-78
2022/03/22 03:13:19;;;;;;;12.03;10.67;;;;;;;;;;5041254;28;20226;-79
2022/03/22 03:15:45;;;;;;;13.80;10.73;;;;;;;;;;5047783;28;20248;-78
2022/03/22 03:18:13;;;;;;;13.00;10.97;;;;;;;;;;5032474;28;20239;-77
2022/03/22 03:20:41;;;;;;;14.40;11.80;;;;;;;;;;5074921;28;20203;-79
2022/03/22 03:23:08;;;;;;;11.87;10.27;;;;;;;;;;5038958;28;20227;-78
2022/03/22 03:25:35;;;;;;;13.27;11.00;;;;;;;;;;5044698;28;20220;-76
2022/03/22 03:28:01;;;;;;;12.30;10.73;;;;;;;;;;5004687;28;20224;-77
2022/03/22 03:30:26;;;;;;;15.10;11.70;;;;;;;;;;5046025;28;20353;-77
2022/03/22 03:32:52;;;;;;;12.87;11.17;;;;;;;;;;5011374;28;20224;-78
2022/03/22 03:35:18;;;;;;;15.30;11.20;;;;;;;;;;5030322;28;20231;-79
2022/03/22 03:37:46;;;;;;;12.53;11.20;;;;;;;;;;5044601;28;20282;-78
2022/03/22 03:40:13;;;;;;;14.30;11.20;;;;;;;;;;5051914;28;20306;-79
2022/03/22 03:42:43;;;;;;;14.77;10.83;;;;;;;;;;5029416;28;20302;-78
2022/03/22 03:48:00;;;;;;;15.00;12.13;;;;;;;;;;5061045;28;20261;-79
2022/03/22 03:50:31;;;;;;;13.30;11.60;;;;;;;;;;5063737;28;20698;-78
2022/03/22 03:52:57;;;;;;;13.13;11.10;;;;;;;;;;5048533;28;20350;-77
2022/03/22 03:55:22;;;;;;;14.63;11.57;;;;;;;;;;5045734;28;20236;-78
2022/03/22 03:57:53;;;;;;;13.97;11.53;;;;;;;;;;5019484;28;20255;-78
2022/03/22 04:00:19;;;;;;;13.13;11.43;;;;;;;;;;5058661;28;20224;-77
2022/03/22 04:02:44;;;;;;;14.47;11.23;;;;;;;;;;5033835;28;20212;-78
2022/03/22 04:05:10;;;;;;;11.77;10.37;;;;;;;;;;5069872;28;20215;-78
2022/03/22 04:07:38;;;;;;;13.23;11.00;;;;;;;;;;5087980;28;20227;-78
2022/03/22 04:10:04;;;;;;;12.77;10.77;;;;;;;;;;5067392;28;20208;-78
2022/03/22 04:12:31;;;;;;;15.00;11.40;;;;;;;;;;5062490;28;20215;-78
2022/03/22 04:14:57;;;;;;;14.60;11.83;;;;;;;;;;5067085;28;20223;-77
2022/03/22 04:17:25;;;;;;;14.50;11.80;;;;;;;;;;5049768;28;20223;-76
2022/03/22 04:19:50;;;;;;;15.60;11.73;;;;;;;;;;5075613;28;20226;-76
2022/03/22 04:22:18;;;;;;;15.17;12.00;;;;;;;;;;5056343;28;20219;-77
2022/03/22 04:24:44;;;;;;;13.13;11.57;;;;;;;;;;5046320;28;20251;-78
2022/03/22 04:32:42;;;;;;;13.60;11.53;;;;;;;;;;5056548;28;20233;-79
2022/03/22 04:35:17;;;;;;;16.13;12.03;;;;;;;;;;5047518;28;20310;-78
2022/03/22 04:37:43;;;;;;;14.83;11.43;;;;;;;;;;5041548;28;20227;-79
2022/03/22 04:40:11;;;;;;;14.83;11.97;;;;;;;;;;5053786;28;20223;-78
2022/03/22 04:42:37;;;;;;;15.10;11.97;;;;;;;;;;5031988;28;20235;-79
2022/03/22 04:45:07;;;;;;;14.20;10.90;;;;;;;;;;5018390;28;20216;-79
2022/03/22 04:47:36;;;;;;;13.50;11.37;;;;;;;;;;5047077;28;20680;-73
2022/03/22 04:50:05;;;;;;;12.40;11.07;;;;;;;;;;5012629;28;20682;-75
2022/03/22 04:58:02;;;;;;;15.33;11.83;;;;;;;;;;5033783;28;20708;-73
2022/03/22 05:00:27;;;;;;;16.70;11.93;;;;;;;;;;5024645;28;20216;-74
2022/03/22 05:02:56;;;;;;;16.10;11.70;;;;;;;;;;5041132;28;20227;-73
2022/03/22 05:08:09;;;;;;;15.40;12.37;;;;;;;;;;5002816;28;20228;-72
2022/03/22 05:10:35;;;;;;;13.10;11.17;;;;;;;;;;5019884;28;20224;-73
2022/03/22 05:13:04;;;;;;;16.07;12.07;;;;;;;;;;5017129;28;20243;-73
2022/03/22 05:15:31;;;;;;;15.97;12.20;;;;;;;;;;5042795;28;20223;-73
2022/03/22 05:17:59;;;;;;;13.50;12.00;;;;;;;;;;5007978;28;20233;-74
2022/03/22 05:20:25;;;;;;;14.27;12.03;;;;;;;;;;5047776;28;20307;-73
2022/03/22 05:22:50;;;;;;;14.77;12.27;;;;;;;;;;5001750;28;20753;-73
2022/03/22 05:25:16;;;;;;;13.47;11.70;;;;;;;;;;5045925;28;20232;-73
2022/03/22 05:27:42;;;;;;;13.70;12.07;;;;;;;;;;5033170;28;20282;-73
2022/03/22 05:30:09;;;;;;;17.77;12.63;;;;;;;;;;5049058;28;20227;-73
2022/03/22 05:32:37;;;;;;;14.63;12.10;;;;;;;;;;5043462;28;20231;-74
2022/03/22 05:35:02;;;;;;;18.30;13.13;;;;;;;;;;5046548;28;20272;-74
2022/03/22 05:37:30;;;;;;;18.03;12.93;;;;;;;;;;5025496;28;20314;-74
2022/03/22 05:40:04;;;;;;;13.67;12.20;;;;;;;;;;5029045;28;20316;-75
2022/03/22 05:42:30;;;;;;;15.23;11.90;;;;;;;;;;5046194;28;20220;-74
2022/03/22 05:44:57;;;;;;;15.70;12.00;;;;;;;;;;5032422;28;20208;-75
2022/03/22 05:47:24;;;;;;;13.17;11.23;;;;;;;;;;5001022;28;20235;-74
2022/03/22 05:49:53;;;;;;;15.03;12.20;;;;;;;;;;5045071;28;20325;-74
2022/03/22 05:52:18;;;;;;;14.57;11.90;;;;;;;;;;5032999;28;20248;-74
2022/03/22 05:54:44;;;;;;;13.33;11.57;;;;;;;;;;5039991;28;20279;-74
2022/03/22 05:57:12;;;;;;;13.70;11.37;;;;;;;;;;5010231;28;20755;-74
2022/03/22 05:59:37;;;;;;;14.03;11.40;;;;;;;;;;5042962;28;20215;-74
2022/03/22 06:02:04;;;;;;;13.80;11.63;;;;;;;;;;5039982;28;20875;-74
2022/03/22 06:04:32;;;;;;;14.83;11.73;;;;;;;;;;5004079;28;20211;-75
2022/03/22 06:06:58;;;;;;;13.37;12.00;;;;;;;;;;5031223;28;20235;-75
2022/03/22 06:09:24;;;;;;;15.60;12.80;;;;;;;;;;5011426;28;20222;-73
2022/03/22 06:11:54;;;;;;;13.17;11.37;;;;;;;;;;5008107;28;20605;-72
2022/03/22 06:14:22;;;;;;;15.47;12.07;;;;;;;;;;5002949;28;20238;-74
2022/03/22 06:16:50;;;;;;;15.07;12.77;;;;;;;;;;5027872;28;20228;-74
2022/03/22 06:19:58;;;;;;;16.70;11.53;;;;;;;;;;5005975;28;20219;-75
2022/03/22 06:22:26;;;;;;;14.17;11.13;;;;;;;;;;5033482;28;20227;-74
2022/03/22 06:24:51;;;;;;;13.67;11.90;;;;;;;;;;5032908;28;20236;-73
2022/03/22 06:27:19;;;;;;;13.17;11.77;;;;;;;;;;5044399;28;20705;-74
2022/03/22 06:29:44;;;;;;;13.80;11.20;;;;;;;;;;5046911;28;20223;-74
2022/03/22 06:32:11;;;;;;;14.00;11.43;;;;;;;;;;4999601;28;20634;-77
2022/03/22 06:34:37;;;;;;;14.90;11.13;;;;;;;;;;5016932;28;20886;-76
2022/03/22 06:37:05;;;;;;;16.63;11.20;;;;;;;;;;5021656;28;20242;-76
2022/03/22 06:39:33;;;;;;;13.43;11.27;;;;;;;;;;5017954;28;20230;-73
2022/03/22 06:42:01;;;;;;;12.77;11.40;;;;;;;;;;5051026;28;20228;-78
2022/03/22 06:44:26;;;;;;;15.97;11.57;;;;;;;;;;5030455;28;20259;-78
2022/03/22 06:46:52;;;;;;;14.43;11.17;;;;;;;;;;5057472;28;20216;-77
2022/03/22 06:49:20;;;;;;;14.23;10.87;;;;;;;;;;5057794;28;20210;-77
2022/03/22 06:51:45;;;;;;;13.00;10.37;;;;;;;;;;5057122;28;20231;-77
2022/03/22 06:54:12;;;;;;;12.40;10.90;;;;;;;;;;5055933;28;20294;-76
2022/03/22 06:56:38;;;;;;;12.53;10.47;;;;;;;;;;5026727;28;20302;-73
2022/03/22 06:59:05;;;;;;;13.90;11.00;;;;;;;;;;5048254;28;20254;-74
2022/03/22 07:01:31;;;;;;;13.67;10.87;;;;;;;;;;5043529;28;20250;-74
2022/03/22 07:04:00;;;;;;;13.87;10.93;;;;;;;;;;5006317;28;20703;-74
2022/03/22 07:06:25;;;;;;;12.30;10.97;;;;;;;;;;5039005;28;20220;-74
2022/03/22 07:08:52;;;;;;;13.07;10.97;;;;;;;;;;5032430;28;20251;-76
2022/03/22 07:14:07;;;;;;;14.07;11.17;;;;;;;;;;5044704;28;20223;-73
2022/03/22 07:16:32;;;;;;;12.13;10.90;;;;;;;;;;5027468;28;20215;-74
2022/03/22 07:19:07;;;;;;;13.77;11.23;;;;;;;;;;5052448;28;20223;-76
2022/03/22 07:21:35;;;;;;;13.87;10.63;;;;;;;;;;5016170;28;20223;-75
2022/03/22 07:24:03;;;;;;;13.83;11.40;;;;;;;;;;5025104;28;20220;-75
2022/03/22 07:26:28;;;;;;;13.10;10.70;;;;;;;;;;5035996;28;20228;-74
2022/03/22 07:29:33;;;;;;;13.47;11.13;;;;;;;;;;5014896;28;20230;-74
2022/03/22 07:32:01;;;;;;;13.87;11.00;;;;;;;;;;5013623;28;20219;-72
2022/03/22 07:34:27;;;;;;;13.93;10.57;;;;;;;;;;5044865;28;20219;-75
2022/03/22 07:36:53;;;;;;;12.27;10.80;;;;;;;;;;5042029;28;20216;-76
2022/03/22 07:39:21;;;;;;;12.30;10.40;;;;;;;;;;5040185;28;20215;-76
2022/03/22 07:41:49;;;;;;;11.80;10.60;;;;;;;;;;5009560;28;20220;-76
2022/03/22 07:44:20;;;;;;;14.23;10.50;;;;;;;;;;5017461;28;20208;-77
2022/03/22 07:46:45;;;;;;;11.13;9.93;;;;;;;;;;5028675;28;20689;-76
2022/03/22 07:54:40;;;;;;;11.37;10.17;;;;;;;;;;5028337;28;20239;-76
2022/03/22 07:57:09;;;;;;;13.80;10.80;;;;;;;;;;5010650;28;20424;-75
2022/03/22 07:59:36;;;;;;;12.33;11.03;;;;;;;;;;5046605;28;20207;-75
2022/03/22 08:02:04;;;;;;;14.17;10.73;;;;;;;;;;5034693;28;20220;-75
2022/03/22 08:04:30;;;;;;;13.40;11.27;;;;;;;;;;5035739;28;20230;-73
2022/03/22 08:06:56;;;;;;;12.13;10.47;;;;;;;;;;5045246;28;20617;-73
2022/03/22 08:09:23;;;;;;;12.43;10.07;;;;;;;;;;5045531;28;20741;-76
2022/03/22 08:11:51;;;;;;;13.37;10.80;;;;;;;;;;5038523;28;20227;-75
2022/03/22 08:14:19;;;;;;;12.83;10.50;;;;;;;;;;5030035;28;20762;-75
2022/03/22 08:16:45;;;;;;;12.60;10.87;;;;;;;;;;5046330;28;20323;-73
2022/03/22 08:19:17;;;;;;;12.47;10.53;;;;;;;;;;5055853;28;20211;-74
2022/03/22 08:21:43;;;;;;;13.07;11.13;;;;;;;;;;5028242;28;20227;-72
2022/03/22 08:24:08;;;;;;;12.27;10.90;;;;;;;;;;5019144;28;20782;-73
2022/03/22 08:26:35;;;;;;;11.97;10.60;;;;;;;;;;5031162;28;20306;-73
2022/03/22 08:29:00;;;;;;;14.30;11.03;;;;;;;;;;5010855;28;20216;-74
2022/03/22 08:31:26;;;;;;;12.27;10.77;;;;;;;;;;5018627;28;20363;-74
2022/03/22 08:33:53;;;;;;;12.17;10.43;;;;;;;;;;5046840;28;20231;-73
2022/03/22 08:36:21;;;;;;;12.37;11.00;;;;;;;;;;5045900;28;20208;-74
2022/03/22 08:38:48;;;;;;;11.73;10.53;;;;;;;;;;5050166;28;20930;-73
2022/03/22 08:41:16;;;;;;;11.93;10.63;;;;;;;;;;5057688;28;20275;-74
2022/03/22 08:43:42;;;;;;;11.30;10.13;;;;;;;;;;5033524;28;20245;-74
2022/03/22 08:46:14;;;;;;;12.13;10.83;;;;;;;;;;5070181;28;20365;-74
2022/03/22 08:49:28;;;;;;;12.17;10.67;;;;;;;;;;5046152;28;20242;-75
2022/03/22 08:51:56;;;;;;;13.93;10.53;;;;;;;;;;5042965;28;20236;-74
2022/03/22 08:54:22;;;;;;;11.77;10.53;;;;;;;;;;5063401;28;24715;-74
2022/03/22 08:56:47;;;;;;;11.30;10.10;;;;;;;;;;5055506;28;20231;-73
2022/03/22 08:59:13;;;;;;;12.90;11.20;;;;;;;;;;5038723;28;20220;-75
2022/03/22 09:01:42;;;;;;;12.90;10.60;;;;;;;;;;5040008;28;20219;-73
2022/03/22 09:06:51;;;;;;;11.60;10.40;;;;;;;;;;5038219;28;20223;-73
2022/03/22 09:09:16;;;;;;;13.60;11.27;;;;;;;;;;5031311;28;20548;-75
2022/03/22 09:11:44;;;;;;;12.37;11.07;;;;;;;;;;5037630;28;20231;-75
2022/03/22 09:14:10;;;;;;;11.70;10.40;;;;;;;;;;5045986;28;20640;-74
2022/03/22 09:16:39;;;;;;;12.10;10.50;;;;;;;;;;5026617;28;20228;-75
2022/03/22 09:19:06;;;;;;;13.30;10.90;;;;;;;;;;5051877;28;20236;-78
2022/03/22 09:21:35;;;;;;;13.53;10.83;;;;;;;;;;4997770;28;20216;-76
2022/03/22 09:24:03;;;;;;;11.97;10.20;;;;;;;;;;5039706;28;20231;-74
2022/03/22 09:26:30;;;;;;;13.00;11.03;;;;;;;;;;5039342;28;20215;-74
2022/03/22 09:28:57;;;;;;;12.23;10.93;;;;;;;;;;5046518;28;20230;-75
2022/03/22 09:31:23;;;;;;;12.93;10.93;;;;;;;;;;5026255;28;20270;-75
2022/03/22 09:33:48;;;;;;;13.43;10.80;;;;;;;;;;5006570;28;20362;-75
2022/03/22 09:36:14;;;;;;;14.60;12.10;;;;;;;;;;5019032;28;20227;-75
2022/03/22 09:38:39;;;;;;;15.00;11.27;;;;;;;;;;5047963;28;20234;-75
2022/03/22 09:41:08;;;;;;;12.27;10.43;;;;;;;;;;5019491;28;20219;-74
2022/03/22 09:43:33;;;;;;;12.03;10.83;;;;;;;;;;5026238;28;20272;-75
2022/03/22 09:46:04;;;;;;;12.80;10.90;;;;;;;;;;5035983;28;20287;-74
2022/03/22 09:48:33;;;;;;;14.57;11.07;;;;;;;;;;5000712;28;20231;-75
2022/03/22 09:53:45;;;;;;;14.98;10.80;;;;;;;;;;5047500;28;20220;-75
2022/03/22 09:56:11;;;;;;;16.10;11.02;;;;;;;;;;5033300;28;20239;-75
2022/03/22 09:58:36;;;;;;;11.63;10.43;;;;;;;;;;5043483;28;20215;-75
2022/03/22 10:01:02;;;;;;;12.70;11.20;;;;;;;;;;5052044;28;20235;-76
2022/03/22 10:03:32;;;;;;;12.50;10.82;;;;;;;;;;5042738;28;20219;-77
2022/03/22 10:06:01;;;;;;;12.63;11.00;;;;;;;;;;5041808;28;20389;-75
2022/03/22 10:08:34;;;;;;;13.02;10.80;;;;;;;;;;5056516;28;20219;-76
2022/03/22 10:11:01;;;;;;;12.38;11.05;;;;;;;;;;5036401;28;20243;-76
2022/03/22 10:13:28;;;;;;;13.88;11.15;;;;;;;;;;5026981;28;20224;-75
2022/03/22 10:16:06;;;;;;;14.60;11.50;;;;;;;;;;5018983;28;20227;-76
2022/03/22 10:18:34;;;;;;;14.52;11.13;;;;;;;;;;4994803;28;20273;-76
2022/03/22 10:21:01;;;;;;;14.10;10.50;;;;;;;;;;5047784;28;20228;-75
2022/03/22 10:23:32;;;;;;;13.65;11.57;;;;;;;;;;5033587;28;20266;-74
2022/03/22 10:26:05;;;;;;;13.02;10.68;;;;;;;;;;5035844;28;20279;-76
2022/03/22 10:28:32;;;;;;;13.75;11.32;;;;;;;;;;5036633;28;20219;-75
2022/03/22 10:31:00;;;;;;;12.25;10.60;;;;;;;;;;5043837;28;20231;-75
2022/03/22 10:33:30;;;;;;;12.32;11.02;;;;;;;;;;5001783;28;20228;-76
2022/03/22 10:35:58;;;;;;;12.73;11.43;;;;;;;;;;5008642;28;20316;-76
2022/03/22 10:38:26;;;;;;;11.60;10.25;;;;;;;;;;5032984;28;20216;-76
2022/03/22 10:40:54;;;;;;;13.95;11.20;;;;;;;;;;5031437;28;20220;-76
2022/03/22 10:43:25;;;;;;;12.30;11.02;;;;;;;;;;5024754;28;20777;-76
2022/03/22 10:46:00;;;;;;;16.30;10.82;;;;;;;;;;5016994;28;20212;-77
2022/03/22 10:48:36;;;;;;;12.68;11.40;;;;;;;;;;5028117;28;20238;-76
2022/03/22 10:51:06;;;;;;;13.07;11.50;;;;;;;;;;5039312;28;20219;-76
2022/03/22 10:53:32;;;;;;;12.27;10.95;;;;;;;;;;5034552;28;20242;-76
2022/03/22 10:56:02;;;;;;;13.02;10.88;;;;;;;;;;5025692;28;20212;-76
2022/03/22 10:58:34;;;;;;;14.55;11.30;;;;;;;;;;5000425;28;20219;-76
2022/03/22 11:01:03;;;;;;;15.68;11.38;;;;;;;;;;5044700;28;20605;-75
2022/03/22 11:03:30;;;;;;;49.80;15.00;;;;;;;;;;5034833;28;20235;-76
2022/03/22 11:06:05;;;;;;;21.85;12.50;;;;;;;;;;5051102;28;20216;-76
2022/03/22 11:08:31;;;;;;;16.50;11.30;;;;;;;;;;5003490;28;20226;-76
2022/03/22 11:10:56;;;;;;;13.63;11.27;;;;;;;;;;5026834;28;20609;-75
2022/03/22 11:13:24;;;;;;;13.63;11.07;;;;;;;;;;5002044;28;20586;-76
2022/03/22 11:15:50;;;;;;;12.75;11.13;;;;;;;;;;5028124;28;20211;-76
2022/03/22 11:18:18;;;;;;;12.82;11.45;;;;;;;;;;5045719;28;20218;-76
2022/03/22 11:21:03;;;;;;;14.05;11.30;;;;;;;;;;5047309;28;20216;-76
2022/03/22 11:23:32;;;;;;;16.77;12.82;;;;;;;;;;5015687;28;20222;-75
2022/03/22 11:26:11;;;;;;;15.35;12.65;;;;;;;;;;5040976;28;20216;-76
2022/03/22 11:28:39;;;;;;;15.27;12.60;;;;;;;;;;5051010;28;20211;-75
2022/03/22 11:31:06;;;;;;;16.90;14.85;;;;;;;;;;5061799;28;20627;-76
2022/03/22 11:36:26;;;;;;;17.30;15.13;;;;;;;;;;5031233;28;20229;-77
2022/03/22 11:38:53;;;;;;;19.65;17.30;;;;;;;;;;5038779;28;20215;-76
2022/03/22 11:44:29;;;;;;;22.15;18.67;;;;;;;;;;5040909;28;20302;-76
2022/03/22 11:47:07;;;;;;;21.92;19.02;;;;;;;;;;5055001;28;20684;-76
2022/03/22 11:49:52;;;;;;;25.08;20.27;;;;;;;;;;5016475;28;20224;-78
2022/03/22 11:52:22;;;;;;;23.25;20.23;;;;;;;;;;5021380;28;20262;-76
2022/03/22 11:55:09;;;;;;;18.23;16.23;;;;;;;;;;5053639;28;20227;-76
2022/03/22 11:57:46;;;;;;;22.83;18.88;;;;;;;;;;5030025;28;20223;-76
2022/03/22 12:00:12;;;;;;;23.63;18.23;;;;;;;;;;5017929;28;20311;-76
2022/03/22 12:02:39;;;;;;;24.13;18.83;;;;;;;;;;5022963;28;20254;-77
2022/03/22 12:05:05;;;;;;;17.33;14.48;;;;;;;;;;5020498;28;20267;-77
2022/03/22 12:07:32;;;;;;;14.25;12.40;;;;;;;;;;5037659;28;20220;-77
2022/03/22 12:10:11;;;;;;;13.18;11.07;;;;;;;;;;5016028;28;20311;-77
2022/03/22 12:12:38;;;;;;;11.13;10.02;;;;;;;;;;5035107;28;20250;-77
2022/03/22 12:15:08;;;;;;;10.75;9.38;;;;;;;;;;5016340;28;20628;-77
2022/03/22 12:17:34;;;;;;;11.18;9.98;;;;;;;;;;5035153;28;20216;-76
2022/03/22 12:20:00;;;;;;;11.10;9.60;;;;;;;;;;5019433;28;20236;-77
2022/03/22 12:22:26;;;;;;;10.85;7.38;;;;;;;;;;5017217;28;20224;-77
2022/03/22 12:24:52;;;;;;;8.77;7.88;;;;;;;;;;5033621;28;20230;-76
2022/03/22 12:27:19;;;;;;;10.93;8.48;;;;;;;;;;5050782;28;20314;-78
2022/03/22 12:29:45;;;;;;;12.05;8.60;;;;;;;;;;5015208;28;20624;-77
2022/03/22 12:32:18;;;;;;;10.18;6.95;;;;;;;;;;5034191;28;20288;-78
2022/03/22 12:34:44;;;;;;;10.23;6.47;;;;;;;;;;5034388;28;20213;-78
2022/03/22 12:37:11;;;;;;;7.55;6.40;;;;;;;;;;5050214;28;20239;-77
2022/03/22 12:39:37;;;;;;;10.63;7.00;;;;;;;;;;5036088;28;20243;-76
2022/03/22 12:42:03;;;;;;;11.60;7.07;;;;;;;;;;5048116;28;20224;-75
2022/03/22 12:44:31;;;;;;;11.65;6.75;;;;;;;;;;5048102;28;20219;-76
2022/03/22 12:47:00;;;;;;;8.57;7.18;;;;;;;;;;5017276;28;20618;-78
2022/03/22 12:49:27;;;;;;;8.80;6.78;;;;;;;;;;5046808;28;20246;-79
2022/03/22 12:51:55;;;;;;;9.82;6.68;;;;;;;;;;5044184;28;20219;-77
2022/03/22 12:54:23;;;;;;;8.15;6.72;;;;;;;;;;5062650;28;20236;-76
2022/03/22 12:56:49;;;;;;;7.65;6.53;;;;;;;;;;5024776;28;20208;-76
2022/03/22 12:59:21;;;;;;;9.68;5.90;;;;;;;;;;5056809;28;20228;-77
2022/03/22 13:01:57;;;;;;;7.63;5.78;;;;;;;;;;5061073;28;20226;-77
2022/03/22 13:04:29;;;;;;;6.45;5.70;;;;;;;;;;5041532;28;20227;-76
2022/03/22 13:07:04;;;;;;;8.45;6.45;;;;;;;;;;5057692;28;20216;-76
2022/03/22 13:12:17;;;;;;;8.77;6.38;;;;;;;;;;5031012;28;20227;-79
2022/03/22 13:17:30;;;;;;;10.02;6.60;;;;;;;;;;5052405;28;20330;-80
2022/03/22 13:19:58;;;;;;;9.05;6.32;;;;;;;;;;5010559;28;20224;-78
2022/03/22 13:22:26;;;;;;;8.57;6.43;;;;;;;;;;5051750;28;20223;-79
2022/03/22 13:25:08;;;;;;;8.13;6.03;;;;;;;;;;5048096;28;20692;-78
2022/03/22 13:27:37;;;;;;;8.32;6.03;;;;;;;;;;5013938;28;20224;-78
2022/03/22 13:30:03;;;;;;;7.55;6.32;;;;;;;;;;5020493;28;20248;-77
2022/03/22 13:32:30;;;;;;;7.88;5.93;;;;;;;;;;5045135;28;20713;-79
2022/03/22 13:35:02;;;;;;;8.80;6.80;;;;;;;;;;5029673;28;20232;-78
2022/03/22 13:37:30;;;;;;;7.68;6.72;;;;;;;;;;5030719;28;20227;-78
2022/03/22 13:40:22;;;;;;;7.55;6.15;;;;;;;;;;5056584;28;20597;-79
2022/03/22 13:43:02;;;;;;;10.98;6.20;;;;;;;;;;5052791;28;20230;-79
2022/03/22 13:45:28;;;;;;;6.05;5.45;;;;;;;;;;5038249;28;20215;-77
2022/03/22 13:47:55;;;;;;;7.30;5.13;;;;;;;;;;5057334;28;20211;-78
2022/03/22 13:50:28;;;;;;;7.47;5.22;;;;;;;;;;5051406;28;20222;-78
2022/03/22 13:53:03;;;;;;;7.97;5.28;;;;;;;;;;5010671;28;20219;-79
2022/03/22 13:55:29;;;;;;;8.82;5.28;;;;;;;;;;5030939;28;20228;-78
2022/03/22 13:57:58;;;;;;;7.15;5.20;;;;;;;;;;5033687;28;20211;-79
2022/03/22 14:00:26;;;;;;;8.80;5.80;;;;;;;;;;5038792;28;20224;-78
2022/03/22 14:02:54;;;;;;;8.05;5.53;;;;;;;;;;5034488;28;20318;-78
2022/03/22 14:05:20;;;;;;;8.68;5.68;;;;;;;;;;5046902;28;20242;-79
2022/03/22 14:07:58;;;;;;;9.40;5.40;;;;;;;;;;5027173;28;20745;-79
2022/03/22 14:10:25;;;;;;;9.70;5.68;;;;;;;;;;5021809;28;20311;-78
2022/03/22 14:12:50;;;;;;;8.52;5.60;;;;;;;;;;5040629;28;20244;-78
2022/03/22 14:15:16;;;;;;;7.13;5.45;;;;;;;;;;5049692;28;20227;-78
2022/03/22 14:17:45;;;;;;;6.40;5.13;;;;;;;;;;5046309;28;20235;-77
2022/03/22 14:20:12;;;;;;;8.43;5.50;;;;;;;;;;5052112;28;20282;-77
2022/03/22 14:22:41;;;;;;;6.30;5.65;;;;;;;;;;5054828;28;20219;-76
2022/03/22 14:25:09;;;;;;;9.57;6.20;;;;;;;;;;5042741;28;20232;-77
2022/03/22 14:27:36;;;;;;;7.97;5.80;;;;;;;;;;5031202;28;20226;-77
2022/03/22 14:30:06;;;;;;;9.90;6.63;;;;;;;;;;5045433;28;20288;-78
2022/03/22 14:32:35;;;;;;;11.10;6.43;;;;;;;;;;5021785;28;20227;-78
2022/03/22 14:37:47;;;;;;;8.68;6.53;;;;;;;;;;5029453;28;20251;-79
2022/03/22 14:40:13;;;;;;;7.63;6.28;;;;;;;;;;5020432;28;20214;-78
2022/03/22 14:42:43;;;;;;;10.48;6.85;;;;;;;;;;5021862;28;20846;-78
2022/03/22 14:45:13;;;;;;;8.95;6.90;;;;;;;;;;5047058;28;20241;-80
2022/03/22 14:47:42;;;;;;;9.45;6.30;;;;;;;;;;5018871;28;20297;-79
2022/03/22 14:50:08;;;;;;;9.63;6.40;;;;;;;;;;5054709;28;20224;-78
2022/03/22 14:55:22;;;;;;;10.55;6.72;;;;;;;;;;5041852;28;20232;-78
2022/03/22 15:00:32;;;;;;;9.82;7.35;;;;;;;;;;5025915;28;20252;-77
2022/03/22 15:03:00;;;;;;;7.22;6.47;;;;;;;;;;5050067;28;20280;-77
2022/03/22 15:05:39;;;;;;;10.65;7.65;;;;;;;;;;5053314;28;20228;-78
2022/03/22 15:08:09;;;;;;;11.60;7.18;;;;;;;;;;5043945;28;20234;-77
2022/03/22 15:10:41;;;;;;;14.07;7.97;;;;;;;;;;5043854;28;20253;-82
2022/03/22 15:13:10;;;;;;;11.75;8.00;;;;;;;;;;5035231;28;20271;-78
2022/03/22 15:15:39;;;;;;;10.18;6.82;;;;;;;;;;5013739;28;20302;-77
2022/03/22 15:18:10;;;;;;;9.27;6.95;;;;;;;;;;5046999;28;20231;-78
2022/03/22 15:20:39;;;;;;;12.10;7.88;;;;;;;;;;5046687;28;20227;-78
2022/03/22 15:23:08;;;;;;;8.55;7.50;;;;;;;;;;5047943;28;20222;-76
2022/03/22 15:25:36;;;;;;;11.85;8.25;;;;;;;;;;5015227;28;20220;-76